Time;durP1;ratioP1;P1;durP2;ratioP2;P2;SDS_P1;SDS_P2;PMS_P1;PMS_P2;Temp;Humidity;BMP_temperature;BMP_pressure;BME280_temperature;BME280_humidity;BME280_pressure;Samples;Min_cycle;Max_cycle;Signal;HPM_P1;HPM_P2
2021/08/11 00:02:38;;;;;;;;;;;;;;;17.72;100.00;100660.72;5095995;28;20050;-68
2021/08/11 00:05:22;;;;;;;8.45;4.45;;;;;;;17.69;100.00;100659.22;5095690;28;19966;-67
2021/08/11 00:08:06;;;;;;;6.35;4.28;;;;;;;17.56;100.00;100660.84;5094867;28;20047;-68
2021/08/11 00:10:50;;;;;;;7.63;4.72;;;;;;;17.56;100.00;100655.44;5094817;28;20055;-68
2021/08/11 00:13:34;;;;;;;7.03;4.10;;;;;;;17.46;100.00;100662.91;5094712;28;20051;-68
2021/08/11 00:16:17;;;;;;;13.13;4.05;;;;;;;17.39;100.00;100652.03;5094614;28;20454;-67
2021/08/11 00:19:01;;;;;;;;;;;;;;;17.34;100.00;100656.22;5094243;28;20051;-68
2021/08/11 00:21:45;;;;;;;6.90;4.03;;;;;;;17.29;100.00;100659.47;5094620;28;20296;-68
2021/08/11 00:24:30;;;;;;;6.10;4.55;;;;;;;17.25;100.00;100660.00;5094745;28;20047;-68
2021/08/11 00:27:14;;;;;;;5.57;3.92;;;;;;;17.25;100.00;100657.31;5093930;28;20081;-67
2021/08/11 00:30:00;;;;;;;6.90;4.65;;;;;;;17.25;100.00;100663.53;5093607;28;20043;-68
2021/08/11 00:32:44;;;;;;;7.35;3.95;;;;;;;17.28;100.00;100656.97;5094391;28;20043;-68
2021/08/11 00:35:28;;;;;;;5.35;4.38;;;;;;;17.33;100.00;100654.56;5094463;28;20047;-68
2021/08/11 00:38:12;;;;;;;7.10;4.30;;;;;;;17.38;100.00;100663.81;5094199;28;20051;-68
2021/08/11 00:40:56;;;;;;;4.60;4.03;;;;;;;17.43;100.00;100655.19;5093148;28;20129;-68
2021/08/11 00:43:40;;;;;;;7.15;4.13;;;;;;;17.48;100.00;100661.72;5094482;28;20293;-68
2021/08/11 00:46:23;;;;;;;6.28;4.05;;;;;;;17.53;100.00;100664.75;5093308;28;20055;-68
2021/08/11 00:49:11;;;;;;;6.53;4.47;;;;;;;17.60;100.00;100657.59;5094497;28;20047;-68
2021/08/11 00:51:55;;;;;;;6.35;4.45;;;;;;;17.66;100.00;100662.28;5093042;28;20123;-68
2021/08/11 00:54:39;;;;;;;8.52;4.70;;;;;;;17.70;100.00;100662.78;5094232;28;20062;-68
2021/08/11 00:57:25;;;;;;;5.35;4.22;;;;;;;17.73;100.00;100651.63;5092978;28;20046;-68
2021/08/11 01:00:10;;;;;;;6.68;4.60;;;;;;;17.74;100.00;100648.75;5093205;28;20047;-68
2021/08/11 01:02:54;;;;;;;7.75;3.90;;;;;;;17.76;100.00;100652.09;5092102;28;20455;-68
2021/08/11 01:05:39;;;;;;;6.75;4.40;;;;;;;17.75;100.00;100647.72;5092886;28;20082;-68
2021/08/11 01:08:24;;;;;;;6.80;4.28;;;;;;;17.72;100.00;100645.38;5092721;28;20094;-68
2021/08/11 01:11:08;;;;;;;5.85;4.13;;;;;;;17.66;100.00;100651.50;5093175;28;20135;-68
2021/08/11 01:13:52;;;;;;;7.45;4.80;;;;;;;17.58;100.00;100643.47;5078290;28;20043;-68
2021/08/11 01:16:36;;;;;;;5.65;4.65;;;;;;;17.52;100.00;100646.88;5093924;28;20089;-68
2021/08/11 01:19:20;;;;;;;7.50;4.05;;;;;;;17.48;100.00;100655.50;5093707;28;20055;-68
2021/08/11 01:22:20;;;;;;;12.50;4.90;;;;;;;17.40;100.00;100640.22;5093849;28;20437;-68
2021/08/11 01:25:14;;;;;;;8.13;4.35;;;;;;;17.23;100.00;100643.16;5092711;28;20134;-67
2021/08/11 01:28:26;;;;;;;7.40;4.88;;;;;;;17.13;100.00;100650.63;5092628;28;20043;-68
2021/08/11 01:31:15;;;;;;;6.38;4.25;;;;;;;17.08;100.00;100640.38;5093661;28;20139;-68
2021/08/11 01:34:02;;;;;;;8.20;4.18;;;;;;;17.07;100.00;100646.78;5092637;28;20420;-68
2021/08/11 01:36:51;;;;;;;4.93;3.92;;;;;;;17.04;100.00;100639.06;5092282;28;20051;-68
2021/08/11 01:39:44;;;;;;;4.40;4.00;;;;;;;17.02;100.00;100651.03;5092509;28;20043;-68
2021/08/11 01:42:41;;;;;;;7.60;4.50;;;;;;;17.03;100.00;100644.63;5092527;28;20082;-68
2021/08/11 01:45:28;;;;;;;6.72;4.30;;;;;;;17.04;100.00;100639.06;5092538;28;20042;-68
2021/08/11 01:48:14;;;;;;;5.40;3.92;;;;;;;17.02;100.00;100643.81;5092550;28;20409;-68
2021/08/11 01:50:58;;;;;;;8.15;4.20;;;;;;;17.01;100.00;100650.19;5092673;28;20055;-68
2021/08/11 01:53:42;;;;;;;4.93;4.03;;;;;;;16.98;100.00;100649.72;5092631;28;20093;-68
2021/08/11 01:56:27;;;;;;;7.25;5.30;;;;;;;16.97;100.00;100654.25;5092153;28;20047;-68
2021/08/11 01:59:12;;;;;;;4.70;3.58;;;;;;;16.96;100.00;100655.28;5093206;28;20101;-68
2021/08/11 02:01:56;;;;;;;5.60;4.28;;;;;;;16.95;100.00;100650.06;5093485;28;20059;-68
2021/08/11 02:04:39;;;;;;;5.60;4.40;;;;;;;16.96;100.00;100649.03;5092269;28;20074;-68
2021/08/11 02:07:24;;;;;;;9.05;4.45;;;;;;;17.01;100.00;100643.97;5064231;28;20055;-68
2021/08/11 02:10:11;;;;;;;7.47;4.72;;;;;;;17.01;100.00;100650.19;5092123;28;20067;-68
2021/08/11 02:12:55;;;;;;;4.97;3.88;;;;;;;17.00;100.00;100653.91;5092531;28;20043;-68
2021/08/11 02:15:39;;;;;;;5.70;4.43;;;;;;;16.97;100.00;100656.94;5096914;28;20193;-68
2021/08/11 02:18:23;;;;;;;5.38;4.32;;;;;;;16.94;100.00;100654.63;5097492;28;20153;-68
2021/08/11 02:21:07;;;;;;;7.78;4.30;;;;;;;16.91;100.00;100657.63;5097171;28;20131;-68
2021/08/11 02:23:51;;;;;;;9.07;4.88;;;;;;;16.91;100.00;100654.94;5096173;28;20067;-67
2021/08/11 02:26:40;;;;;;;8.75;4.95;;;;;;;16.92;100.00;100653.97;5096954;28;20415;-68
2021/08/11 02:29:43;;;;;;;7.07;4.93;;;;;;;16.96;100.00;100657.97;5096283;28;20043;-68
2021/08/11 02:32:50;;;;;;;6.80;4.65;;;;;;;16.98;100.00;100649.72;5096703;28;20085;-68
2021/08/11 02:35:40;;;;;;;6.18;4.72;;;;;;;16.97;100.00;100656.94;5095737;28;20451;-68
2021/08/11 02:38:31;;;;;;;11.77;5.00;;;;;;;16.96;100.00;100657.09;5095749;28;20047;-68
2021/08/11 02:41:44;;;;;;;4.82;4.22;;;;;;;16.88;100.00;100655.31;5096015;28;20122;-68
2021/08/11 02:44:41;;;;;;;5.57;4.70;;;;;;;16.82;100.00;100652.47;5095347;28;20047;-68
2021/08/11 02:47:26;;;;;;;9.20;4.90;;;;;;;16.78;100.00;100654.66;5095322;28;20078;-68
2021/08/11 02:50:10;;;;;;;8.10;4.95;;;;;;;16.73;100.00;100648.13;5095337;28;20550;-68
2021/08/11 02:52:55;;;;;;;5.18;4.22;;;;;;;16.66;100.00;100660.59;5095485;28;20408;-68
2021/08/11 02:55:40;;;;;;;6.80;4.35;;;;;;;16.62;100.00;100665.53;5096445;28;20495;-68
2021/08/11 02:58:25;;;;;;;8.32;4.50;;;;;;;16.56;100.00;100655.44;5095368;28;20566;-67
2021/08/11 03:01:09;;;;;;;8.15;4.45;;;;;;;16.54;100.00;100656.59;5096109;28;20063;-68
2021/08/11 03:03:54;;;;;;;5.25;4.40;;;;;;;16.50;100.00;100655.28;5095533;28;20050;-68
2021/08/11 03:06:38;;;;;;;7.90;4.60;;;;;;;16.48;100.00;100665.38;5094985;28;20116;-68
2021/08/11 03:09:23;;;;;;;6.38;4.20;;;;;;;16.44;100.00;100664.03;5096199;28;20069;-68
2021/08/11 03:12:09;;;;;;;7.93;4.60;;;;;;;16.41;100.00;100651.78;5096007;28;20408;-68
2021/08/11 03:14:53;;;;;;;5.93;4.75;;;;;;;16.39;100.00;100653.78;5095707;28;20047;-68
2021/08/11 03:17:37;;;;;;;6.93;4.63;;;;;;;16.37;100.00;100650.44;5094915;28;20070;-68
2021/08/11 03:20:21;;;;;;;5.50;4.18;;;;;;;16.34;100.00;100656.13;5094860;28;20109;-68
2021/08/11 03:23:06;;;;;;;4.97;4.35;;;;;;;16.31;100.00;100656.47;5095396;28;20127;-67
2021/08/11 03:25:50;;;;;;;5.32;4.45;;;;;;;16.28;100.00;100656.81;5094220;28;20089;-68
2021/08/11 03:28:34;;;;;;;5.57;4.53;;;;;;;16.20;100.00;100664.91;5095783;28;20039;-69
2021/08/11 03:31:18;;;;;;;6.13;5.20;;;;;;;16.17;100.00;100665.22;5094644;28;20097;-69
2021/08/11 03:34:01;;;;;;;9.68;4.57;;;;;;;16.14;100.00;100665.59;5095508;28;20051;-68
2021/08/11 03:36:45;;;;;;;6.88;4.70;;;;;;;16.13;100.00;100665.75;5095752;28;20409;-69
2021/08/11 03:39:29;;;;;;;4.75;4.20;;;;;;;16.12;100.00;100661.38;5095323;28;20101;-69
2021/08/11 03:42:13;;;;;;;6.90;4.47;;;;;;;16.10;100.00;100672.31;5095385;28;20050;-69
2021/08/11 03:44:57;;;;;;;6.10;4.28;;;;;;;16.09;100.00;100667.94;5080189;28;20051;-69
2021/08/11 03:47:42;;;;;;;6.72;4.30;;;;;;;16.08;100.00;100670.81;5095541;28;20420;-69
2021/08/11 03:50:27;;;;;;;8.63;4.47;;;;;;;16.09;100.00;100678.69;5094362;28;20123;-69
2021/08/11 03:53:11;;;;;;;7.70;4.40;;;;;;;16.07;100.00;100685.25;5095146;28;20055;-69
2021/08/11 03:55:55;;;;;;;5.78;4.80;;;;;;;16.04;100.00;100685.59;5095079;28;20138;-69
2021/08/11 03:58:40;;;;;;;6.00;4.55;;;;;;;15.99;100.00;100678.00;5095294;28;20055;-69
2021/08/11 04:01:24;;;;;;;6.20;4.45;;;;;;;15.96;100.00;100677.53;5094221;28;20047;-69
2021/08/11 04:04:08;;;;;;;7.65;4.78;;;;;;;15.92;100.00;100679.72;5094975;28;20055;-70
2021/08/11 04:06:51;;;;;;;7.85;4.80;;;;;;;15.86;100.00;100682.25;5095250;28;20082;-69
2021/08/11 04:09:35;;;;;;;7.00;5.15;;;;;;;15.86;100.00;100688.44;5095433;28;20519;-69
2021/08/11 04:12:19;;;;;;;6.10;4.78;;;;;;;15.84;100.00;100685.09;5094147;28;20554;-69
2021/08/11 04:15:04;;;;;;;9.55;4.90;;;;;;;15.84;100.00;100690.47;5094542;28;20070;-69
2021/08/11 04:17:48;;;;;;;9.45;4.45;;;;;;;15.82;100.00;100687.13;5093615;28;20052;-69
2021/08/11 04:20:32;;;;;;;7.40;3.83;;;;;;;15.79;100.00;100695.53;5093815;28;20040;-69
2021/08/11 04:23:16;;;;;;;5.25;4.13;;;;;;;15.77;100.00;100689.44;5094587;28;20077;-69
2021/08/11 04:26:00;;;;;;;6.45;4.40;;;;;;;15.76;100.00;100700.38;5094855;28;20051;-69
2021/08/11 04:28:44;;;;;;;7.78;4.75;;;;;;;15.74;100.00;100695.16;5094724;28;20039;-69
2021/08/11 04:31:28;;;;;;;6.90;4.75;;;;;;;15.73;100.00;100703.38;5094687;28;20093;-67
2021/08/11 04:34:12;;;;;;;6.20;4.60;;;;;;;15.74;100.00;100695.16;5093483;28;20050;-69
2021/08/11 04:36:56;;;;;;;9.75;5.07;;;;;;;15.73;100.00;100704.25;5092964;28;20096;-69
2021/08/11 04:39:40;;;;;;;7.93;5.10;;;;;;;15.78;100.00;100701.88;5094124;28;20413;-69
2021/08/11 04:42:24;;;;;;;7.90;4.78;;;;;;;15.85;100.00;100707.47;5094409;28;20050;-69
2021/08/11 04:45:09;;;;;;;4.45;3.95;;;;;;;15.94;100.00;100709.97;5093977;28;20093;-68
2021/08/11 04:47:53;;;;;;;6.57;4.60;;;;;;;16.01;100.00;100718.19;5094084;28;20051;-69
2021/08/11 04:50:37;;;;;;;6.72;4.07;;;;;;;16.04;100.00;100713.34;5093882;28;20070;-69
2021/08/11 04:53:20;;;;;;;7.32;4.70;;;;;;;16.10;100.00;100711.81;5094199;28;20059;-68
2021/08/11 04:56:04;;;;;;;7.40;4.55;;;;;;;16.17;100.00;100719.03;5093865;28;20062;-70
2021/08/11 04:58:48;;;;;;;4.90;4.15;;;;;;;16.27;100.00;100717.00;5094060;28;20516;-69
2021/08/11 05:01:32;;;;;;;6.88;4.85;;;;;;;16.36;100.00;100721.41;5094078;28;20122;-69
2021/08/11 05:04:16;;;;;;;6.38;5.07;;;;;;;16.46;100.00;100708.59;5094214;28;20070;-69
2021/08/11 05:07:02;;;;;;;7.93;4.57;;;;;;;16.57;100.00;100715.50;5093720;28;20055;-69
2021/08/11 05:09:47;;;;;;;6.90;4.97;;;;;;;16.70;100.00;100711.22;5093708;28;20062;-69
2021/08/11 05:12:31;;;;;;;6.80;4.63;;;;;;;16.74;100.00;100711.72;5093839;28;20528;-69
2021/08/11 05:15:15;;;;;;;5.13;3.90;;;;;;;16.80;100.00;100711.06;5092545;28;20078;-68
2021/08/11 05:17:59;;;;;;;6.13;5.13;;;;;;;16.83;100.00;100710.69;5092637;28;20082;-69
2021/08/11 05:20:43;;;;;;;6.50;4.65;;;;;;;16.88;100.00;100714.56;5093808;28;20106;-69
2021/08/11 05:23:27;;;;;;;4.63;4.05;;;;;;;16.91;100.00;100716.06;5093710;28;20042;-69
2021/08/11 05:26:11;;;;;;;7.45;4.32;;;;;;;16.96;100.00;100711.84;5093296;28;20446;-69
2021/08/11 05:28:55;;;;;;;7.43;4.47;;;;;;;17.03;100.00;100712.81;5092459;28;20051;-69
2021/08/11 05:31:39;;;;;;;7.22;4.40;;;;;;;17.13;100.00;100713.44;5092410;28;20055;-69
2021/08/11 05:34:23;;;;;;;6.45;4.85;;;;;;;17.28;100.00;100716.25;5093677;28;20086;-69
2021/08/11 05:37:07;;;;;;;6.30;4.43;;;;;;;17.45;100.00;100724.09;5092639;28;20051;-68
2021/08/11 05:39:51;;;;;;;5.45;4.68;;;;;;;17.61;100.00;100728.56;5092294;28;20050;-69
2021/08/11 05:42:35;;;;;;;6.10;4.43;;;;;;;17.76;100.00;100722.22;5092599;28;20058;-69
2021/08/11 05:45:19;;;;;;;5.93;4.82;;;;;;;17.91;100.00;100722.28;5093518;28;20047;-69
2021/08/11 05:48:02;;;;;;;8.30;4.90;;;;;;;18.03;100.00;100718.94;5094307;28;20051;-69
2021/08/11 05:50:46;;;;;;;7.35;4.72;;;;;;;18.19;100.00;100726.06;5097590;28;20050;-68
2021/08/11 05:53:30;;;;;;;8.32;5.25;;;;;;;18.36;100.00;100725.81;5097587;28;20051;-69
2021/08/11 05:56:14;;;;;;;10.70;4.70;;;;;;;18.56;100.00;100729.66;5097214;28;20051;-69
2021/08/11 05:58:58;;;;;;;10.98;5.10;;;;;;;18.71;100.00;100720.53;5096650;28;20114;-69
2021/08/11 06:01:43;;;;;;;4.97;4.45;;;;;;;18.83;100.00;100729.88;5082086;28;20051;-69
2021/08/11 06:04:28;;;;;;;7.47;5.03;;;;;;;18.87;100.00;100725.75;5096349;28;20412;-69
2021/08/11 06:07:12;;;;;;;9.82;5.20;;;;;;;18.92;100.00;100733.28;5097307;28;20055;-69
2021/08/11 06:09:56;;;;;;;9.45;5.35;;;;;;;18.89;100.00;100728.28;5097339;28;20062;-69
2021/08/11 06:12:40;;;;;;;5.65;4.28;;;;;;;18.90;100.00;100729.94;5097270;28;20059;-69
2021/08/11 06:15:24;;;;;;;9.05;5.45;;;;;;;18.97;100.00;100731.72;5095819;28;20089;-69
2021/08/11 06:18:08;;;;;;;7.63;4.72;;;;;;;19.04;100.00;100732.66;5097146;28;20136;-69
2021/08/11 06:20:52;;;;;;;6.90;5.32;;;;;;;19.14;100.00;100733.19;5097333;28;20035;-69
2021/08/11 06:23:36;;;;;;;6.13;5.15;;;;;;;19.24;100.00;100724.81;5096785;28;20150;-69
2021/08/11 06:26:21;;;;;;;10.85;5.53;;;;;;;19.32;100.00;100724.72;5096815;28;20098;-69
2021/08/11 06:29:05;;;;;;;8.70;5.40;;;;;;;19.34;100.00;100718.09;5095918;28;20039;-69
2021/08/11 06:31:49;;;;;;;6.82;5.05;;;;;;;19.41;100.00;100724.41;5095706;28;20432;-69
2021/08/11 06:34:33;;;;;;;7.57;5.50;;;;;;;19.46;100.00;100723.84;5096668;28;20185;-69
2021/08/11 06:37:17;;;;;;;8.70;5.07;;;;;;;19.51;99.77;100716.84;5096594;28;20047;-69
2021/08/11 06:40:01;;;;;;;7.35;5.32;;;;;;;19.57;99.84;100731.47;5096362;28;20050;-69
2021/08/11 06:42:45;;;;;;;10.30;6.25;;;;;;;19.62;99.05;100723.63;5095591;28;20055;-69
2021/08/11 06:45:30;;;;;;;8.90;5.78;;;;;;;19.68;98.71;100714.75;5095500;28;20067;-69
2021/08/11 06:48:14;;;;;;;7.97;5.93;;;;;;;19.78;98.06;100731.50;5096309;28;20077;-69
2021/08/11 06:50:58;;;;;;;6.82;5.60;;;;;;;19.82;98.23;100719.25;5096280;28;20077;-69
2021/08/11 06:53:42;;;;;;;9.43;5.50;;;;;;;19.92;97.01;100720.59;5096696;28;20050;-69
2021/08/11 06:56:26;;;;;;;;;;;;;;;20.00;96.59;100722.38;5096706;28;20097;-69
2021/08/11 06:59:10;;;;;;;7.80;5.80;;;;;;;20.13;96.16;100725.22;5096392;28;19923;-69
2021/08/11 07:01:54;;;;;;;9.32;6.32;;;;;;;20.27;95.53;100729.72;5096116;28;20097;-69
2021/08/11 07:04:38;;;;;;;10.45;7.43;;;;;;;20.47;93.64;100733.41;5096194;28;20097;-69
2021/08/11 07:07:22;;;;;;;12.27;7.00;;;;;;;20.59;92.44;100732.69;5096267;28;20046;-68
2021/08/11 07:10:08;;;;;;;9.70;6.93;;;;;;;20.84;90.50;100725.75;5095136;28;20417;-69
2021/08/11 07:12:52;;;;;;;11.85;7.38;;;;;;;20.97;90.14;100730.47;5095203;28;20484;-69
2021/08/11 07:15:36;;;;;;;11.27;6.88;;;;;;;21.08;89.42;100732.59;5095674;28;20083;-69
2021/08/11 07:18:20;;;;;;;;;;;;;;;21.19;86.73;100731.00;5095085;28;20051;-69
2021/08/11 07:21:04;;;;;;;11.60;6.80;;;;;;;21.27;86.97;100733.56;5095700;28;20371;-69
2021/08/11 07:23:47;;;;;;;8.68;6.07;;;;;;;21.38;87.12;100732.97;5094637;28;20051;-69
2021/08/11 07:26:32;;;;;;;9.45;7.75;;;;;;;21.46;87.63;100721.09;5096095;28;20047;-69
2021/08/11 07:29:16;;;;;;;;;;;;;;;21.53;86.70;100727.41;5095897;28;20047;-69
2021/08/11 07:32:00;;;;;;;12.60;7.47;;;;;;;21.65;86.62;100734.78;5095516;28;19918;-69
2021/08/11 07:34:44;;;;;;;;;;;;;;;21.74;85.69;100730.00;5095755;28;20130;-69
2021/08/11 07:37:28;;;;;;;11.23;7.40;;;;;;;21.85;84.45;100730.25;5094293;28;19957;-69
2021/08/11 07:40:13;;;;;;;11.77;7.13;;;;;;;22.00;84.18;100725.44;5094508;28;20377;-69
2021/08/11 07:42:57;;;;;;;10.18;6.15;;;;;;;22.08;83.10;100733.41;5095494;28;20500;-69
2021/08/11 07:45:41;;;;;;;10.98;6.47;;;;;;;22.26;82.71;100736.34;5095094;28;20127;-69
2021/08/11 07:48:25;;;;;;;7.53;6.43;;;;;;;22.44;82.75;100728.47;5094377;28;20408;-69
2021/08/11 07:51:09;;;;;;;9.52;6.50;;;;;;;22.65;81.33;100739.09;5095162;28;20054;-69
2021/08/11 07:53:53;;;;;;;9.70;6.68;;;;;;;22.85;79.15;100726.31;5094082;28;20471;-69
2021/08/11 07:56:36;;;;;;;8.02;6.10;;;;;;;23.00;79.95;100734.22;5079706;28;20421;-69
2021/08/11 07:59:20;;;;;;;7.15;5.38;;;;;;;23.14;80.07;100731.28;5095250;28;20078;-69
2021/08/11 08:02:08;;;;;;;9.80;6.20;;;;;;;23.25;77.82;100737.94;5079468;28;20468;-69
2021/08/11 08:04:52;;;;;;;10.77;6.78;;;;;;;23.36;76.40;100732.69;5094704;28;20123;-69
2021/08/11 08:07:36;;;;;;;8.85;6.78;;;;;;;23.53;75.13;100725.69;5094963;28;20134;-69
2021/08/11 08:10:20;;;;;;;;;;;;;;;23.64;73.53;100729.63;5095232;28;20412;-69
2021/08/11 08:13:04;;;;;;;9.37;6.20;;;;;;;23.74;73.31;100738.97;5094800;28;19962;-69
2021/08/11 08:15:49;;;;;;;9.60;6.38;;;;;;;23.82;72.37;100736.00;5094334;28;20275;-69
2021/08/11 08:18:32;;;;;;;11.02;6.63;;;;;;;23.85;72.15;100730.13;5093407;28;20051;-69
2021/08/11 08:21:16;;;;;;;9.63;6.07;;;;;;;23.87;71.07;100733.50;5094869;28;20085;-69
2021/08/11 08:24:00;;;;;;;9.20;5.75;;;;;;;23.92;71.86;100727.38;5094679;28;20448;-69
2021/08/11 08:26:45;;;;;;;;;;;;;;;24.00;72.27;100727.97;5095106;28;20054;-69
2021/08/11 08:29:29;;;;;;;9.73;5.90;;;;;;;24.20;71.56;100728.66;5093339;28;19962;-69
2021/08/11 08:32:13;;;;;;;8.55;6.18;;;;;;;24.18;69.50;100725.31;5094647;28;20078;-69
2021/08/11 08:34:56;;;;;;;10.43;6.07;;;;;;;24.24;70.07;100729.88;5094356;28;20055;-69
2021/08/11 08:37:40;;;;;;;;;;;;;;;24.26;70.95;100727.75;5093794;28;20293;-69
2021/08/11 08:40:30;;;;;;;10.55;5.82;;;;;;;24.32;71.10;100733.16;5093092;28;19939;-68
2021/08/11 08:43:15;;;;;;;6.05;4.95;;;;;;;24.33;69.93;100734.00;5094034;28;20142;-68
2021/08/11 08:46:00;;;;;;;13.95;5.80;;;;;;;24.37;68.89;100729.75;5094266;28;20109;-69
2021/08/11 08:48:45;;;;;;;11.65;5.82;;;;;;;24.38;69.43;100726.81;5092692;28;20046;-69
2021/08/11 08:51:31;;;;;;;9.90;5.93;;;;;;;24.47;70.60;100724.66;5094135;28;20140;-69
2021/08/11 08:54:22;;;;;;;8.23;5.72;;;;;;;24.55;67.96;100733.44;5094251;28;20050;-68
2021/08/11 08:57:06;;;;;;;8.57;5.05;;;;;;;24.62;68.22;100730.63;5093813;28;20043;-68
2021/08/11 08:59:50;;;;;;;;;;;;;;;24.79;68.20;100734.47;5094120;28;20043;-67
2021/08/11 09:02:41;;;;;;;11.80;5.30;;;;;;;24.95;67.65;100740.16;5078062;28;19965;-69
2021/08/11 09:05:26;;;;;;;7.75;4.65;;;;;;;25.11;68.43;100730.56;5092895;28;20174;-69
2021/08/11 09:08:10;;;;;;;7.78;4.70;;;;;;;25.27;65.61;100739.00;5093427;28;20093;-69
2021/08/11 09:10:54;;;;;;;7.10;4.75;;;;;;;25.46;63.46;100748.84;5093864;28;20039;-67
2021/08/11 09:13:38;;;;;;;7.05;5.85;;;;;;;25.70;62.49;100738.84;5093444;28;20051;-69
2021/08/11 09:16:22;;;;;;;;;;;;;;;25.85;64.21;100742.03;5093656;28;20051;-69
2021/08/11 09:19:08;;;;;;;7.97;4.90;;;;;;;26.02;61.76;100746.63;5092019;28;20041;-69
2021/08/11 09:22:03;;;;;;;9.07;4.50;;;;;;;26.23;59.58;100748.81;5093261;28;20565;-69
2021/08/11 09:25:05;;;;;;;5.80;4.30;;;;;;;26.43;58.30;100751.25;5091980;28;20522;-69
2021/08/11 09:27:49;;;;;;;6.03;4.50;;;;;;;26.69;55.92;100748.94;5093462;28;20058;-69
2021/08/11 09:30:33;;;;;;;10.07;5.55;;;;;;;27.02;54.92;100740.97;5092422;28;20126;-69
2021/08/11 09:33:20;;;;;;;;;;;;;;;27.11;52.10;100734.06;5093777;28;20097;-68
2021/08/11 09:36:10;;;;;;;7.53;5.10;;;;;;;27.41;52.61;100735.56;5093280;28;19919;-69
2021/08/11 09:38:55;;;;;;;7.70;4.28;;;;;;;27.62;53.37;100737.63;5092082;28;20096;-69
2021/08/11 09:41:58;;;;;;;8.10;5.32;;;;;;;27.89;53.07;100736.03;5092426;28;20043;-68
2021/08/11 09:44:57;;;;;;;7.57;4.80;;;;;;;28.07;52.59;100734.97;5093341;28;20078;-67
2021/08/11 09:48:03;;;;;;;6.38;4.45;;;;;;;28.35;51.79;100729.47;5093149;28;20035;-67
2021/08/11 09:50:48;;;;;;;6.32;4.60;;;;;;;28.64;51.52;100726.41;5093283;28;20153;-68
2021/08/11 09:53:31;;;;;;;7.53;4.80;;;;;;;28.87;51.15;100731.69;5093314;28;20093;-67
2021/08/11 09:56:15;;;;;;;;;;;;;;;29.21;49.94;100740.72;5093693;28;20082;-66
2021/08/11 09:59:02;;;;;;;7.88;4.80;;;;;;;29.60;48.07;100729.47;5092981;28;19994;-67
2021/08/11 10:01:46;;;;;;;6.88;4.68;;;;;;;29.77;48.87;100735.69;5093344;28;20459;-69
2021/08/11 10:04:40;;;;;;;7.45;4.53;;;;;;;30.25;47.17;100742.00;5093133;28;20412;-69
2021/08/11 10:07:24;;;;;;;10.68;4.45;;;;;;;30.46;47.15;100745.78;5092271;28;20039;-69
2021/08/11 10:10:09;;;;;;;7.88;4.57;;;;;;;31.24;47.07;100745.84;5092257;28;20074;-67
2021/08/11 10:12:53;;;;;;;6.95;4.85;;;;;;;32.12;42.27;100751.13;5093136;28;20098;-67
2021/08/11 10:15:37;;;;;;;7.15;4.90;;;;;;;33.11;40.43;100742.88;5092731;28;20051;-67
2021/08/11 10:18:26;;;;;;;6.28;4.75;;;;;;;34.38;39.48;100744.81;5092872;28;20118;-68
2021/08/11 10:21:10;;;;;;;7.03;4.38;;;;;;;36.60;34.98;100738.81;5092141;28;20044;-68
2021/08/11 10:23:54;;;;;;;6.47;4.22;;;;;;;38.47;31.13;100734.66;5093020;28;20559;-68
2021/08/11 10:26:39;;;;;;;11.05;9.77;;;;;;;40.05;29.74;100748.03;5092745;28;20047;-68
2021/08/11 10:29:24;;;;;;;6.93;4.72;;;;;;;40.99;27.38;100737.63;5093012;28;20051;-68
2021/08/11 10:32:08;;;;;;;6.57;5.20;;;;;;;39.55;29.14;100735.59;5091698;28;20046;-68
2021/08/11 10:34:57;;;;;;;10.05;5.05;;;;;;;37.80;31.04;100730.91;5093792;28;20054;-68
2021/08/11 10:37:41;;;;;;;6.57;4.55;;;;;;;36.21;34.43;100726.38;5096748;28;20047;-67
2021/08/11 10:40:26;;;;;;;4.80;4.20;;;;;;;34.98;36.21;100736.78;5095420;28;20051;-68
2021/08/11 10:43:13;;;;;;;7.82;4.35;;;;;;;34.12;37.35;100730.28;5096741;28;20113;-67
2021/08/11 10:46:00;;;;;;;6.55;4.40;;;;;;;34.16;37.49;100734.13;5096170;28;20051;-68
2021/08/11 10:48:59;;;;;;;7.50;4.57;;;;;;;33.69;38.86;100733.84;5095476;28;20515;-67
2021/08/11 10:51:45;;;;;;;7.97;4.38;;;;;;;34.28;37.93;100725.50;5096530;28;20047;-67
2021/08/11 10:54:52;;;;;;;8.90;4.45;;;;;;;34.23;36.88;100729.13;5096107;28;20428;-68
2021/08/11 10:57:36;;;;;;;5.47;4.40;;;;;;;33.68;38.22;100726.66;5095120;28;20065;-67
2021/08/11 11:00:20;;;;;;;5.85;4.50;;;;;;;33.01;39.49;100733.78;5095945;28;20047;-68
2021/08/11 11:03:04;;;;;;;8.57;4.70;;;;;;;33.02;39.90;100726.31;5096170;28;20047;-68
2021/08/11 11:05:52;;;;;;;6.70;4.38;;;;;;;34.64;37.13;100719.38;5096290;28;20062;-67
2021/08/11 11:08:37;;;;;;;6.00;4.57;;;;;;;34.96;36.06;100719.63;5096386;28;20511;-68
2021/08/11 11:11:27;;;;;;;5.68;4.40;;;;;;;36.37;33.50;100711.13;5095062;28;20428;-68
2021/08/11 11:14:44;;;;;;;6.72;5.00;;;;;;;36.32;32.89;100702.88;5095763;28;20050;-68
2021/08/11 11:17:29;;;;;;;7.20;4.57;;;;;;;35.67;34.21;100706.63;5095713;28;20038;-67
2021/08/11 11:20:14;;;;;;;8.02;4.60;;;;;;;35.27;34.27;100701.56;5094581;28;20051;-68
2021/08/11 11:22:59;;;;;;;6.97;4.60;;;;;;;35.52;34.74;100703.19;5095573;28;20078;-67
2021/08/11 11:25:58;;;;;;;6.78;4.30;;;;;;;36.08;33.02;100695.75;5095236;28;20070;-68
2021/08/11 11:28:52;;;;;;;12.25;7.95;;;;;;;37.49;32.34;100695.72;5080412;28;20121;-68
2021/08/11 11:31:42;;;;;;;6.45;4.70;;;;;;;38.96;30.06;100692.69;5095246;28;20181;-69
2021/08/11 11:34:32;;;;;;;5.18;4.18;;;;;;;40.65;27.31;100687.41;5095469;28;20100;-68
2021/08/11 11:37:19;;;;;;;6.00;4.32;;;;;;;42.00;25.30;100682.28;5094624;28;20100;-69
2021/08/11 11:40:05;;;;;;;4.78;4.30;;;;;;;42.89;24.15;100688.03;5095413;28;20464;-69
2021/08/11 11:42:49;;;;;;;7.43;4.65;;;;;;;43.21;23.92;100673.09;5095899;28;20101;-69
2021/08/11 11:45:42;;;;;;;4.82;4.25;;;;;;;43.37;24.22;100669.25;5094191;28;20051;-67
2021/08/11 11:48:26;;;;;;;9.13;4.60;;;;;;;42.32;24.11;100672.28;5095202;28;20421;-68
2021/08/11 11:51:10;;;;;;;5.80;4.45;;;;;;;43.03;24.68;100672.47;5095357;28;20122;-69
2021/08/11 11:54:04;;;;;;;6.10;4.07;;;;;;;43.88;22.68;100673.28;5093974;28;20097;-67
2021/08/11 11:56:48;;;;;;;4.32;3.92;;;;;;;44.98;21.68;100670.44;5094984;28;20039;-69
2021/08/11 11:59:33;;;;;;;8.57;4.90;;;;;;;44.35;21.79;100666.66;5094884;28;20047;-69
2021/08/11 12:02:21;;;;;;;7.38;4.55;;;;;;;42.81;22.28;100674.91;5093769;28;20051;-69
2021/08/11 12:05:06;;;;;;;6.63;4.30;;;;;;;41.06;23.80;100665.22;5093711;28;20090;-69
2021/08/11 12:07:50;;;;;;;7.55;4.50;;;;;;;41.08;25.26;100657.31;5094753;28;20111;-68
2021/08/11 12:10:35;;;;;;;5.40;4.28;;;;;;;39.40;27.64;100665.47;5094654;28;20095;-68
2021/08/11 12:13:18;;;;;;;6.47;4.60;;;;;;;39.79;27.24;100659.81;5093926;28;20055;-68
2021/08/11 12:16:02;;;;;;;6.95;4.20;;;;;;;40.63;26.54;100658.97;5093682;28;20047;-68
2021/08/11 12:18:49;;;;;;;6.82;4.32;;;;;;;41.15;25.67;100646.44;5094756;28;20079;-69
2021/08/11 12:21:34;;;;;;;7.43;3.90;;;;;;;41.34;25.39;100649.59;5094824;28;20050;-68
2021/08/11 12:24:18;;;;;;;5.85;4.22;;;;;;;39.54;25.12;100650.22;5094324;28;20073;-69
2021/08/11 12:27:11;;;;;;;5.75;4.03;;;;;;;39.67;26.00;100648.47;5094551;28;20042;-68
2021/08/11 12:30:14;;;;;;;7.95;3.92;;;;;;;38.34;26.79;100651.94;5094398;28;20404;-67
2021/08/11 12:32:58;;;;;;;4.85;3.95;;;;;;;38.03;28.11;100645.50;5094491;28;20496;-68
2021/08/11 12:35:42;;;;;;;5.82;3.88;;;;;;;36.96;28.56;100647.28;5094225;28;20047;-68
2021/08/11 12:38:31;;;;;;;6.90;3.60;;;;;;;35.66;30.35;100649.50;5093433;28;20094;-68
2021/08/11 12:41:17;;;;;;;7.32;3.90;;;;;;;35.17;31.98;100651.78;5093128;28;20047;-68
2021/08/11 12:44:18;;;;;;;4.68;3.70;;;;;;;34.84;32.15;100646.34;5093435;28;20528;-68
2021/08/11 12:47:05;;;;;;;5.75;3.80;;;;;;;36.42;30.73;100638.81;5094355;28;20051;-68
2021/08/11 12:49:50;;;;;;;4.47;3.83;;;;;;;38.55;28.66;100641.94;5093019;28;20047;-68
2021/08/11 12:52:34;;;;;;;4.97;4.30;;;;;;;39.72;26.71;100640.78;5092929;28;20562;-68